Time;durP1;ratioP1;P1;durP2;ratioP2;P2;SDS_P1;SDS_P2;PMS_P1;PMS_P2;Temp;Humidity;BMP_temperature;BMP_pressure;BME280_temperature;BME280_humidity;BME280_pressure;Samples;Min_cycle;Max_cycle;Signal;HPM_P1;HPM_P2
2024/01/13 00:01:08;;;;;;;20.02;9.75;;;;;;;;;;5129962;28;20126;-70
2024/01/13 00:03:35;;;;;;;17.83;8.88;;;;;;;;;;5129460;28;20051;-68
2024/01/13 00:06:03;;;;;;;20.33;9.32;;;;;;;;;;5129746;27;20564;-69
2024/01/13 00:08:30;;;;;;;20.85;9.50;;;;;;;;;;5133222;27;20053;-70
2024/01/13 00:11:04;;;;;;;20.73;9.35;;;;;;;;;;5133550;27;20047;-70
2024/01/13 00:13:31;;;;;;;17.38;8.75;;;;;;;;;;5133832;27;20043;-68
2024/01/13 00:15:57;;;;;;;20.73;10.15;;;;;;;;;;5133423;27;20057;-68
2024/01/13 00:18:24;;;;;;;23.05;10.98;;;;;;;;;;5133876;27;20054;-70
2024/01/13 00:21:04;;;;;;;;;;;;;;;;;;5134066;27;20055;-69
2024/01/13 00:23:32;;;;;;;22.10;9.70;;;;;;;;;;5133469;27;19927;-70
2024/01/13 00:25:59;;;;;;;19.98;9.65;;;;;;;;;;5132962;27;20703;-70
2024/01/13 00:28:26;;;;;;;20.25;10.27;;;;;;;;;;5133754;27;20050;-70
2024/01/13 00:31:03;;;;;;;20.88;9.98;;;;;;;;;;5134097;27;20411;-70
2024/01/13 00:33:30;;;;;;;25.05;12.10;;;;;;;;;;5133651;27;20043;-70
2024/01/13 00:35:57;;;;;;;25.90;11.68;;;;;;;;;;5133266;27;20047;-68
2024/01/13 00:38:27;;;;;;;23.20;12.02;;;;;;;;;;5133397;27;20043;-68
2024/01/13 00:41:03;;;;;;;25.70;12.25;;;;;;;;;;5132905;27;20054;-70
2024/01/13 00:43:32;;;;;;;25.85;11.50;;;;;;;;;;5133242;27;20496;-70
2024/01/13 00:45:59;;;;;;;22.00;11.13;;;;;;;;;;5133169;27;20487;-69
2024/01/13 00:48:26;;;;;;;23.48;11.25;;;;;;;;;;5133162;27;20549;-69
2024/01/13 00:51:09;;;;;;;23.92;11.35;;;;;;;;;;5132990;27;20047;-69
2024/01/13 00:53:37;;;;;;;20.60;10.20;;;;;;;;;;5133027;27;20173;-69
2024/01/13 00:56:04;;;;;;;21.88;9.95;;;;;;;;;;5132745;27;20062;-69
2024/01/13 00:58:31;;;;;;;18.45;9.52;;;;;;;;;;5132738;27;20511;-69
2024/01/13 01:01:10;;;;;;;21.50;10.35;;;;;;;;;;5132775;27;20042;-69
2024/01/13 01:03:37;;;;;;;21.00;9.75;;;;;;;;;;5132791;27;20555;-70
2024/01/13 01:06:04;;;;;;;18.08;9.10;;;;;;;;;;5132628;27;20534;-69
2024/01/13 01:08:32;;;;;;;19.95;9.50;;;;;;;;;;5132547;27;20135;-69
2024/01/13 01:11:06;;;;;;;18.23;9.55;;;;;;;;;;5131830;27;20506;-69
2024/01/13 01:13:33;;;;;;;20.92;9.93;;;;;;;;;;5132467;27;20092;-70
2024/01/13 01:16:01;;;;;;;21.35;10.05;;;;;;;;;;5132551;27;20108;-71
2024/01/13 01:18:27;;;;;;;19.75;9.77;;;;;;;;;;5132385;27;20402;-70
2024/01/13 01:21:09;;;;;;;20.58;10.15;;;;;;;;;;5132230;27;20047;-70
2024/01/13 01:23:37;;;;;;;23.52;10.43;;;;;;;;;;5132793;27;20108;-70
2024/01/13 01:26:03;;;;;;;19.02;10.00;;;;;;;;;;5131930;27;20126;-69
2024/01/13 01:28:30;;;;;;;18.20;9.75;;;;;;;;;;5132312;27;20048;-71
2024/01/13 01:31:03;;;;;;;20.75;9.93;;;;;;;;;;5132134;27;20096;-71
2024/01/13 01:33:30;;;;;;;20.65;10.20;;;;;;;;;;5132253;27;20134;-70
2024/01/13 01:36:00;;;;;;;23.23;10.48;;;;;;;;;;5132522;27;20137;-70
2024/01/13 01:38:27;;;;;;;21.35;10.43;;;;;;;;;;5132026;27;20051;-70
2024/01/13 01:41:09;;;;;;;23.70;10.38;;;;;;;;;;5131715;27;20058;-69
2024/01/13 01:43:37;;;;;;;24.35;11.00;;;;;;;;;;5132626;27;20043;-69
2024/01/13 01:46:04;;;;;;;22.15;10.68;;;;;;;;;;5131941;27;20572;-69
2024/01/13 01:48:41;;;;;;;22.00;10.38;;;;;;;;;;5131612;27;20095;-70
2024/01/13 01:51:15;;;;;;;20.92;9.82;;;;;;;;;;5131406;27;20079;-70
2024/01/13 01:53:44;;;;;;;20.58;9.85;;;;;;;;;;5131998;27;20418;-70
2024/01/13 01:56:18;;;;;;;24.80;10.90;;;;;;;;;;5131671;27;20047;-70
2024/01/13 01:58:46;;;;;;;27.10;11.07;;;;;;;;;;5132021;27;20055;-69
2024/01/13 02:01:14;;;;;;;24.88;11.43;;;;;;;;;;5131844;27;20047;-69
2024/01/13 02:03:41;;;;;;;25.20;11.57;;;;;;;;;;5131804;27;20055;-69
2024/01/13 02:06:09;;;;;;;26.52;11.85;;;;;;;;;;5131620;27;20050;-69
2024/01/13 02:08:37;;;;;;;29.38;12.65;;;;;;;;;;5131129;27;20046;-69
2024/01/13 02:11:11;;;;;;;27.08;11.80;;;;;;;;;;5131150;27;20049;-69
2024/01/13 02:13:43;;;;;;;26.90;12.38;;;;;;;;;;5131581;27;20051;-70
2024/01/13 02:16:10;;;;;;;26.00;11.70;;;;;;;;;;5131606;27;20047;-70
2024/01/13 02:18:37;;;;;;;25.95;10.98;;;;;;;;;;5131286;27;20047;-69
2024/01/13 02:21:10;;;;;;;24.92;10.30;;;;;;;;;;5131173;27;20086;-70
2024/01/13 02:23:38;;;;;;;22.40;10.20;;;;;;;;;;5131521;27;20089;-70
2024/01/13 02:26:07;;;;;;;24.92;10.77;;;;;;;;;;5130864;27;20043;-70
2024/01/13 02:28:34;;;;;;;22.50;9.98;;;;;;;;;;5131182;27;20396;-69
2024/01/13 02:31:14;;;;;;;26.23;11.13;;;;;;;;;;5130173;27;20045;-69
2024/01/13 02:33:42;;;;;;;30.15;13.55;;;;;;;;;;5131159;27;20051;-69
2024/01/13 02:36:09;;;;;;;27.60;12.85;;;;;;;;;;5131292;27;20146;-69
2024/01/13 02:38:36;;;;;;;27.52;13.02;;;;;;;;;;5131226;27;20062;-70
2024/01/13 02:41:05;;;;;;;25.63;12.40;;;;;;;;;;5130495;27;20047;-70
2024/01/13 02:43:34;;;;;;;32.80;12.55;;;;;;;;;;5113194;27;20050;-70
2024/01/13 02:46:00;;;;;;;34.40;13.10;;;;;;;;;;5130765;27;20058;-68
2024/01/13 02:48:39;;;;;;;27.83;12.27;;;;;;;;;;5130966;27;20043;-70
2024/01/13 02:51:11;;;;;;;30.48;13.63;;;;;;;;;;5130578;27;20074;-69
2024/01/13 02:53:38;;;;;;;31.42;13.70;;;;;;;;;;5131043;27;20065;-70
2024/01/13 02:56:06;;;;;;;30.08;12.70;;;;;;;;;;5130358;27;20065;-69
2024/01/13 02:58:35;;;;;;;31.40;12.73;;;;;;;;;;5130705;27;20039;-69
2024/01/13 03:01:12;;;;;;;27.38;11.50;;;;;;;;;;5130325;27;20132;-69
2024/01/13 03:03:39;;;;;;;29.58;13.05;;;;;;;;;;5130771;27;20043;-69
2024/01/13 03:06:07;;;;;;;29.35;12.43;;;;;;;;;;5130259;27;20414;-69
2024/01/13 03:08:34;;;;;;;26.58;12.23;;;;;;;;;;5130330;27;20043;-69
2024/01/13 03:11:11;;;;;;;28.05;11.40;;;;;;;;;;5129860;27;20053;-70
2024/01/13 03:13:41;;;;;;;26.23;11.35;;;;;;;;;;5130188;27;20059;-70
2024/01/13 03:16:08;;;;;;;29.30;11.75;;;;;;;;;;5130262;27;20043;-69
2024/01/13 03:18:36;;;;;;;29.50;11.65;;;;;;;;;;5130557;27;20043;-70
2024/01/13 03:21:09;;;;;;;27.10;11.32;;;;;;;;;;5130305;27;20047;-71
2024/01/13 03:23:36;;;;;;;23.08;10.27;;;;;;;;;;5131194;27;20087;-70
2024/01/13 03:26:03;;;;;;;23.23;10.25;;;;;;;;;;5131228;27;20074;-69
2024/01/13 03:28:30;;;;;;;23.05;9.90;;;;;;;;;;5130291;27;20047;-69
2024/01/13 03:31:10;;;;;;;23.85;10.45;;;;;;;;;;5130190;27;20055;-69
2024/01/13 03:33:40;;;;;;;24.85;10.25;;;;;;;;;;5130267;27;20405;-69
2024/01/13 03:36:08;;;;;;;21.27;9.60;;;;;;;;;;5130293;27;20131;-68
2024/01/13 03:38:37;;;;;;;24.58;10.52;;;;;;;;;;5129953;27;20057;-69
2024/01/13 03:41:10;;;;;;;24.63;10.98;;;;;;;;;;5129018;27;20043;-69
2024/01/13 03:43:37;;;;;;;31.48;12.80;;;;;;;;;;5130063;27;20151;-69
2024/01/13 03:46:08;;;;;;;25.52;12.00;;;;;;;;;;5129681;27;20110;-69
2024/01/13 03:48:37;;;;;;;27.73;11.95;;;;;;;;;;5129726;27;20495;-69
2024/01/13 03:51:05;;;;;;;28.20;11.20;;;;;;;;;;5129675;27;20047;-69
2024/01/13 03:53:34;;;;;;;22.92;10.73;;;;;;;;;;5112243;28;20046;-68
2024/01/13 03:56:08;;;;;;;24.30;10.32;;;;;;;;;;5129367;28;20363;-69
2024/01/13 03:58:39;;;;;;;23.13;10.13;;;;;;;;;;5129701;28;20511;-69
2024/01/13 04:01:09;;;;;;;24.38;10.80;;;;;;;;;;5129694;28;20043;-69
2024/01/13 04:03:38;;;;;;;25.55;10.20;;;;;;;;;;5129803;28;20073;-69
2024/01/13 04:06:05;;;;;;;23.52;10.07;;;;;;;;;;5129953;28;20043;-69
2024/01/13 04:08:32;;;;;;;22.52;9.75;;;;;;;;;;5129166;28;20412;-70
2024/01/13 04:11:00;;;;;;;23.73;9.73;;;;;;;;;;5129256;28;20051;-70
2024/01/13 04:13:27;;;;;;;24.45;9.85;;;;;;;;;;5129595;28;20046;-70
2024/01/13 04:15:53;;;;;;;22.42;9.63;;;;;;;;;;5129491;28;20511;-69
2024/01/13 04:18:20;;;;;;;22.30;10.30;;;;;;;;;;5129687;28;20050;-68
2024/01/13 04:20:47;;;;;;;20.02;9.65;;;;;;;;;;5129402;28;20595;-69
2024/01/13 04:23:29;;;;;;;26.30;10.55;;;;;;;;;;5130057;28;20126;-69
2024/01/13 04:25:55;;;;;;;23.23;9.80;;;;;;;;;;5129249;28;20043;-69
2024/01/13 04:28:22;;;;;;;22.35;10.38;;;;;;;;;;5129184;28;20582;-69
2024/01/13 04:30:48;;;;;;;23.65;10.18;;;;;;;;;;5129184;28;20058;-69
2024/01/13 04:33:15;;;;;;;26.83;10.52;;;;;;;;;;5129818;28;20047;-69
2024/01/13 04:35:42;;;;;;;28.27;10.98;;;;;;;;;;5129197;27;20043;-69
2024/01/13 04:38:09;;;;;;;28.40;12.05;;;;;;;;;;5129443;28;20043;-69
2024/01/13 04:40:37;;;;;;;25.48;10.82;;;;;;;;;;5128717;27;20054;-69
2024/01/13 04:43:06;;;;;;;25.98;10.55;;;;;;;;;;5129116;28;20089;-69
2024/01/13 04:45:32;;;;;;;25.02;10.07;;;;;;;;;;5129154;28;20058;-69
2024/01/13 04:48:00;;;;;;;22.52;9.82;;;;;;;;;;5129277;28;20055;-68
2024/01/13 04:50:27;;;;;;;21.45;9.18;;;;;;;;;;5129046;27;20047;-69
2024/01/13 04:52:54;;;;;;;22.35;9.40;;;;;;;;;;5130226;27;20050;-69
2024/01/13 04:55:21;;;;;;;23.75;9.80;;;;;;;;;;5132979;27;20051;-69
2024/01/13 04:57:47;;;;;;;22.70;9.48;;;;;;;;;;5132877;27;20074;-69
2024/01/13 05:00:15;;;;;;;20.08;8.73;;;;;;;;;;5133207;27;20050;-70
2024/01/13 05:02:42;;;;;;;22.70;8.93;;;;;;;;;;5132267;27;20053;-69
2024/01/13 05:05:17;;;;;;;20.60;8.70;;;;;;;;;;5133038;27;20051;-69
2024/01/13 05:07:44;;;;;;;22.02;8.85;;;;;;;;;;5132687;27;20067;-69
2024/01/13 05:10:12;;;;;;;19.67;8.88;;;;;;;;;;5132344;27;20062;-69
2024/01/13 05:12:38;;;;;;;21.42;9.05;;;;;;;;;;5132616;27;20039;-69
2024/01/13 05:15:05;;;;;;;20.08;8.13;;;;;;;;;;5132925;27;20067;-69
2024/01/13 05:17:32;;;;;;;18.02;8.32;;;;;;;;;;5132929;27;20050;-69
2024/01/13 05:19:59;;;;;;;20.35;8.77;;;;;;;;;;5132345;27;20116;-69
2024/01/13 05:22:26;;;;;;;20.50;9.40;;;;;;;;;;5132402;27;20047;-69
2024/01/13 05:24:52;;;;;;;24.77;9.18;;;;;;;;;;5132132;27;20043;-69
2024/01/13 05:27:19;;;;;;;19.00;8.95;;;;;;;;;;5132124;27;20108;-69
2024/01/13 05:29:46;;;;;;;22.35;9.50;;;;;;;;;;5132471;27;20043;-68
2024/01/13 05:32:13;;;;;;;19.17;8.52;;;;;;;;;;5132341;27;20051;-69
2024/01/13 05:34:41;;;;;;;22.67;9.82;;;;;;;;;;5114130;27;20565;-69
2024/01/13 05:37:10;;;;;;;20.00;9.43;;;;;;;;;;5132230;27;20051;-70
2024/01/13 05:39:39;;;;;;;22.20;9.93;;;;;;;;;;5132068;27;20051;-69
2024/01/13 05:42:08;;;;;;;21.75;10.75;;;;;;;;;;5132113;27;20050;-69
2024/01/13 05:44:35;;;;;;;17.70;8.90;;;;;;;;;;5113564;27;20403;-69
2024/01/13 05:47:01;;;;;;;20.17;9.57;;;;;;;;;;5131952;27;20126;-70
2024/01/13 05:49:28;;;;;;;20.40;9.90;;;;;;;;;;5132110;27;20051;-70
2024/01/13 05:51:55;;;;;;;19.85;10.10;;;;;;;;;;5131884;27;20487;-70
2024/01/13 05:54:22;;;;;;;20.88;10.27;;;;;;;;;;5131420;27;20066;-70
2024/01/13 05:56:48;;;;;;;23.70;10.10;;;;;;;;;;5132111;27;20048;-68
2024/01/13 05:59:15;;;;;;;23.88;10.10;;;;;;;;;;5132155;27;20100;-69
2024/01/13 06:01:42;;;;;;;20.20;9.65;;;;;;;;;;5131358;27;20043;-68
2024/01/13 06:04:11;;;;;;;21.27;9.27;;;;;;;;;;5130652;27;20403;-70
2024/01/13 06:06:37;;;;;;;21.95;9.07;;;;;;;;;;5131669;27;20085;-68
2024/01/13 06:09:04;;;;;;;18.73;8.60;;;;;;;;;;5130980;27;20056;-69
2024/01/13 06:11:31;;;;;;;20.88;9.10;;;;;;;;;;5131467;27;20085;-69
2024/01/13 06:13:59;;;;;;;18.48;8.75;;;;;;;;;;5131840;27;20050;-69
2024/01/13 06:16:26;;;;;;;19.27;8.60;;;;;;;;;;5131719;27;20043;-70
2024/01/13 06:18:52;;;;;;;22.50;9.85;;;;;;;;;;5132337;27;20154;-69
2024/01/13 06:21:19;;;;;;;22.10;9.25;;;;;;;;;;5132766;27;20047;-69
2024/01/13 06:23:49;;;;;;;21.45;9.52;;;;;;;;;;5113426;27;20047;-68
2024/01/13 06:26:15;;;;;;;19.10;8.35;;;;;;;;;;5131384;27;20040;-69
2024/01/13 06:28:42;;;;;;;19.95;9.13;;;;;;;;;;5131004;27;20046;-70
2024/01/13 06:31:12;;;;;;;18.10;8.75;;;;;;;;;;5131489;27;20043;-70
2024/01/13 06:33:39;;;;;;;18.58;8.07;;;;;;;;;;5131158;27;20295;-70
2024/01/13 06:36:06;;;;;;;18.73;8.95;;;;;;;;;;5131334;27;20046;-69
2024/01/13 06:38:32;;;;;;;20.63;9.45;;;;;;;;;;5130904;27;20554;-70
2024/01/13 06:40:59;;;;;;;17.10;8.27;;;;;;;;;;5130760;27;20597;-70
2024/01/13 06:43:26;;;;;;;19.17;8.85;;;;;;;;;;5112195;27;20054;-70
2024/01/13 06:45:52;;;;;;;23.83;9.65;;;;;;;;;;5131175;27;20099;-68
2024/01/13 06:48:19;;;;;;;21.85;9.63;;;;;;;;;;5130908;27;20047;-69
2024/01/13 06:50:49;;;;;;;19.83;8.73;;;;;;;;;;5131101;27;20075;-69
2024/01/13 06:53:21;;;;;;;18.63;8.52;;;;;;;;;;5130946;27;20047;-69
2024/01/13 06:55:48;;;;;;;16.15;7.90;;;;;;;;;;5130455;27;20092;-70
2024/01/13 06:58:22;;;;;;;20.80;9.07;;;;;;;;;;5130631;27;20054;-69
2024/01/13 07:00:48;;;;;;;18.80;8.63;;;;;;;;;;5130694;27;20395;-69
2024/01/13 07:03:15;;;;;;;19.67;8.75;;;;;;;;;;5130279;27;20047;-69
2024/01/13 07:05:44;;;;;;;19.58;8.57;;;;;;;;;;5130411;27;20043;-69
2024/01/13 07:08:14;;;;;;;15.75;7.63;;;;;;;;;;5130366;27;20107;-69
2024/01/13 07:10:41;;;;;;;20.95;8.55;;;;;;;;;;5129827;27;20130;-68
2024/01/13 07:13:07;;;;;;;20.13;9.23;;;;;;;;;;5130654;27;20066;-69
2024/01/13 07:15:34;;;;;;;22.30;9.75;;;;;;;;;;5130504;27;20047;-69
2024/01/13 07:18:01;;;;;;;22.55;9.52;;;;;;;;;;5130239;27;20134;-68
2024/01/13 07:20:28;;;;;;;19.35;8.43;;;;;;;;;;5130072;27;20447;-69
2024/01/13 07:22:56;;;;;;;19.75;8.30;;;;;;;;;;5130292;27;20122;-69
2024/01/13 07:25:22;;;;;;;16.90;7.68;;;;;;;;;;5129750;27;20078;-69
2024/01/13 07:27:49;;;;;;;18.10;7.85;;;;;;;;;;5129843;27;20070;-68
2024/01/13 07:30:20;;;;;;;17.08;8.35;;;;;;;;;;5112186;27;20113;-69
2024/01/13 07:32:47;;;;;;;16.02;7.65;;;;;;;;;;5129830;27;20552;-68
2024/01/13 07:35:16;;;;;;;16.83;7.35;;;;;;;;;;5130318;27;20107;-69
2024/01/13 07:37:43;;;;;;;17.17;7.75;;;;;;;;;;5129675;27;20047;-69
2024/01/13 07:40:10;;;;;;;20.30;8.20;;;;;;;;;;5129725;27;20079;-69
2024/01/13 07:42:40;;;;;;;17.35;7.88;;;;;;;;;;5129700;27;20047;-69
2024/01/13 07:45:07;;;;;;;17.45;7.78;;;;;;;;;;5129781;27;20043;-69
2024/01/13 07:47:33;;;;;;;16.77;7.82;;;;;;;;;;5130324;27;20066;-69
2024/01/13 07:50:00;;;;;;;19.33;8.65;;;;;;;;;;5129893;27;20039;-69
2024/01/13 07:52:28;;;;;;;18.35;7.65;;;;;;;;;;5129752;27;20046;-69
2024/01/13 07:54:54;;;;;;;18.48;8.60;;;;;;;;;;5129650;28;20124;-69
2024/01/13 07:57:21;;;;;;;18.58;7.90;;;;;;;;;;5129875;28;20107;-69
2024/01/13 07:59:48;;;;;;;16.40;7.40;;;;;;;;;;5129657;28;20391;-69
2024/01/13 08:02:17;;;;;;;21.10;7.88;;;;;;;;;;5129574;28;20046;-70
2024/01/13 08:04:44;;;;;;;15.52;7.15;;;;;;;;;;5129545;28;20043;-70
2024/01/13 08:07:11;;;;;;;17.05;7.93;;;;;;;;;;5129945;28;20055;-70
2024/01/13 08:09:38;;;;;;;16.52;7.32;;;;;;;;;;5129475;28;20058;-70
2024/01/13 08:12:07;;;;;;;16.20;6.63;;;;;;;;;;5130190;28;20054;-71
2024/01/13 08:14:34;;;;;;;15.93;6.68;;;;;;;;;;5130088;28;20122;-70
2024/01/13 08:17:02;;;;;;;17.90;7.32;;;;;;;;;;5130216;28;20115;-69
2024/01/13 08:19:29;;;;;;;12.63;6.25;;;;;;;;;;5129885;28;20126;-70
2024/01/13 08:21:56;;;;;;;14.00;6.72;;;;;;;;;;5130293;28;20044;-70
2024/01/13 08:24:23;;;;;;;15.02;7.15;;;;;;;;;;5129234;28;20372;-70
2024/01/13 08:26:50;;;;;;;18.10;7.32;;;;;;;;;;5129891;27;20047;-70
2024/01/13 08:29:19;;;;;;;16.75;7.00;;;;;;;;;;5114976;27;20039;-71
2024/01/13 08:31:49;;;;;;;16.98;7.75;;;;;;;;;;5133663;27;20159;-70
2024/01/13 08:34:17;;;;;;;16.92;7.07;;;;;;;;;;5133594;27;20415;-70
2024/01/13 08:36:44;;;;;;;17.77;7.63;;;;;;;;;;5133478;27;20039;-72
2024/01/13 08:39:11;;;;;;;17.08;7.20;;;;;;;;;;5132922;27;20063;-70
2024/01/13 08:41:38;;;;;;;15.38;6.75;;;;;;;;;;5133135;27;20130;-70
2024/01/13 08:44:05;;;;;;;17.02;6.85;;;;;;;;;;5133491;27;20039;-70
2024/01/13 08:46:32;;;;;;;19.55;7.75;;;;;;;;;;5133315;27;20039;-70
2024/01/13 08:48:59;;;;;;;20.45;7.82;;;;;;;;;;5133418;27;20051;-70
2024/01/13 08:51:26;;;;;;;15.10;6.93;;;;;;;;;;5133075;27;20482;-69
2024/01/13 08:54:04;;;;;;;18.92;7.63;;;;;;;;;;5132527;27;20574;-68
2024/01/13 08:56:34;;;;;;;16.98;7.18;;;;;;;;;;5132990;27;20126;-69
2024/01/13 08:59:02;;;;;;;15.77;7.78;;;;;;;;;;5133415;27;20138;-70
2024/01/13 09:01:29;;;;;;;17.88;7.50;;;;;;;;;;5133137;27;20047;-69
2024/01/13 09:04:04;;;;;;;16.05;7.38;;;;;;;;;;5132874;27;20051;-69
2024/01/13 09:06:32;;;;;;;18.73;7.47;;;;;;;;;;5133529;27;20560;-70
2024/01/13 09:09:00;;;;;;;19.45;7.53;;;;;;;;;;5133310;27;20058;-69
2024/01/13 09:11:27;;;;;;;17.50;6.90;;;;;;;;;;5134457;27;20483;-70
2024/01/13 09:14:08;;;;;;;17.73;7.38;;;;;;;;;;5134559;27;20134;-70
2024/01/13 09:16:36;;;;;;;22.33;8.27;;;;;;;;;;5134465;27;20494;-68
2024/01/13 09:19:03;;;;;;;20.30;7.72;;;;;;;;;;5133005;27;20043;-70
2024/01/13 09:21:30;;;;;;;17.77;7.70;;;;;;;;;;5133114;27;20050;-70
2024/01/13 09:24:07;;;;;;;18.20;8.27;;;;;;;;;;5132610;27;20126;-69
2024/01/13 09:26:42;;;;;;;19.27;7.70;;;;;;;;;;5132972;27;20047;-69
2024/01/13 09:29:13;;;;;;;15.70;6.78;;;;;;;;;;5133241;27;20051;-70
2024/01/13 09:31:40;;;;;;;17.90;7.22;;;;;;;;;;5132687;27;20134;-69
2024/01/13 09:34:08;;;;;;;23.38;9.40;;;;;;;;;;5132507;27;20133;-71
2024/01/13 09:36:38;;;;;;;20.73;9.18;;;;;;;;;;5114965;27;20111;-70
2024/01/13 09:39:05;;;;;;;20.60;8.48;;;;;;;;;;5132237;27;20051;-69
2024/01/13 09:41:33;;;;;;;17.83;7.45;;;;;;;;;;5132295;27;20128;-69
2024/01/13 09:44:23;;;;;;;17.02;7.10;;;;;;;;;;5132407;27;20096;-70
2024/01/13 09:46:53;;;;;;;19.48;7.72;;;;;;;;;;5132397;27;20082;-69
2024/01/13 09:49:26;;;;;;;20.88;7.85;;;;;;;;;;5132528;27;20068;-69
2024/01/13 09:51:54;;;;;;;19.38;7.85;;;;;;;;;;5132393;27;20104;-69
2024/01/13 09:54:23;;;;;;;18.20;8.50;;;;;;;;;;5131972;27;20071;-70
2024/01/13 09:56:51;;;;;;;14.20;6.53;;;;;;;;;;5132599;27;20047;-69
2024/01/13 09:59:21;;;;;;;21.08;8.27;;;;;;;;;;5132332;27;20100;-70
2024/01/13 10:01:52;;;;;;;18.25;7.93;;;;;;;;;;5132430;27;20043;-70
2024/01/13 10:04:20;;;;;;;19.85;8.32;;;;;;;;;;5132193;27;20047;-69
2024/01/13 10:06:48;;;;;;;15.32;6.55;;;;;;;;;;5132511;27;20051;-69
2024/01/13 10:09:15;;;;;;;17.20;7.28;;;;;;;;;;5131466;27;20062;-69
2024/01/13 10:12:03;;;;;;;17.27;7.32;;;;;;;;;;5132023;27;20043;-71
2024/01/13 10:14:30;;;;;;;18.50;7.97;;;;;;;;;;5131624;27;20039;-70
2024/01/13 10:17:02;;;;;;;17.30;7.40;;;;;;;;;;5131878;27;20924;-69
2024/01/13 10:19:29;;;;;;;18.27;7.25;;;;;;;;;;5131955;27;20451;-69
2024/01/13 10:21:56;;;;;;;15.98;6.78;;;;;;;;;;5131882;27;20410;-70
2024/01/13 10:24:24;;;;;;;17.88;7.55;;;;;;;;;;5131208;27;20050;-72
2024/01/13 10:26:51;;;;;;;12.95;6.35;;;;;;;;;;5131485;27;20075;-70
2024/01/13 10:29:19;;;;;;;17.73;8.23;;;;;;;;;;5131437;27;20523;-70
2024/01/13 10:31:53;;;;;;;14.02;6.47;;;;;;;;;;5131256;27;20051;-70
2024/01/13 10:34:20;;;;;;;16.73;7.82;;;;;;;;;;5130715;27;20539;-71
2024/01/13 10:36:47;;;;;;;13.98;6.25;;;;;;;;;;5131241;27;20039;-70
2024/01/13 10:39:15;;;;;;;16.00;6.80;;;;;;;;;;5130851;27;20050;-70
2024/01/13 10:41:51;;;;;;;13.85;6.60;;;;;;;;;;5113029;27;20125;-69
2024/01/13 10:44:24;;;;;;;13.15;6.20;;;;;;;;;;5131190;27;20046;-69
2024/01/13 10:46:52;;;;;;;12.45;5.65;;;;;;;;;;5131537;27;20074;-70
2024/01/13 10:49:29;;;;;;;14.32;5.72;;;;;;;;;;5131164;27;20054;-69
2024/01/13 10:51:58;;;;;;;13.23;6.30;;;;;;;;;;5130212;27;20055;-70
2024/01/13 10:54:28;;;;;;;14.73;6.50;;;;;;;;;;5130508;27;20047;-70
2024/01/13 10:56:55;;;;;;;12.95;6.13;;;;;;;;;;5131085;27;20080;-70
2024/01/13 10:59:30;;;;;;;10.85;5.28;;;;;;;;;;5131090;27;20049;-70
2024/01/13 11:01:59;;;;;;;10.52;5.00;;;;;;;;;;5112636;27;20126;-69
2024/01/13 11:04:27;;;;;;;12.45;5.85;;;;;;;;;;5130538;27;20043;-69
2024/01/13 11:06:54;;;;;;;11.85;5.65;;;;;;;;;;5130669;27;20043;-68
2024/01/13 11:09:24;;;;;;;11.35;6.28;;;;;;;;;;5129576;27;20092;-68
2024/01/13 11:12:08;;;;;;;16.25;7.00;;;;;;;;;;5130492;27;20046;-70
2024/01/13 11:14:43;;;;;;;14.93;7.30;;;;;;;;;;5130545;27;20076;-71
2024/01/13 11:17:11;;;;;;;13.05;6.68;;;;;;;;;;5130676;27;20053;-71
2024/01/13 11:19:38;;;;;;;9.65;5.03;;;;;;;;;;5112286;27;20125;-71
2024/01/13 11:22:33;;;;;;;10.15;5.45;;;;;;;;;;5130884;27;20077;-70
2024/01/13 11:25:22;;;;;;;9.57;4.40;;;;;;;;;;5129551;27;20460;-70
2024/01/13 11:28:02;;;;;;;11.90;5.90;;;;;;;;;;5129982;27;20407;-70
2024/01/13 11:30:40;;;;;;;14.00;7.20;;;;;;;;;;5130025;27;20051;-70
2024/01/13 11:33:13;;;;;;;11.82;6.50;;;;;;;;;;5130228;27;20519;-70
2024/01/13 11:35:46;;;;;;;11.90;6.63;;;;;;;;;;5129937;27;20074;-70
2024/01/13 11:38:14;;;;;;;8.52;4.85;;;;;;;;;;5130428;27;20051;-70
2024/01/13 11:40:48;;;;;;;10.50;5.93;;;;;;;;;;5129896;27;20043;-70
2024/01/13 11:43:26;;;;;;;10.02;4.95;;;;;;;;;;5130431;27;20095;-70
2024/01/13 11:45:55;;;;;;;10.02;6.00;;;;;;;;;;5111481;27;20546;-70
2024/01/13 11:48:30;;;;;;;7.68;4.50;;;;;;;;;;5129924;27;20046;-70
2024/01/13 11:50:58;;;;;;;11.95;6.40;;;;;;;;;;5129964;27;20146;-70
2024/01/13 11:53:51;;;;;;;7.60;4.47;;;;;;;;;;5129768;27;20107;-70
2024/01/13 11:56:18;;;;;;;8.05;4.53;;;;;;;;;;5130066;28;20050;-72
2024/01/13 11:58:44;;;;;;;6.68;4.10;;;;;;;;;;5130157;28;20050;-70
2024/01/13 12:01:12;;;;;;;11.13;6.55;;;;;;;;;;5129803;28;20582;-70
2024/01/13 12:03:41;;;;;;;8.07;4.85;;;;;;;;;;5132138;27;20505;-70
2024/01/13 12:06:10;;;;;;;11.60;5.30;;;;;;;;;;5116352;27;20082;-70
2024/01/13 12:08:38;;;;;;;8.27;5.03;;;;;;;;;;5133637;27;20439;-70
2024/01/13 12:11:05;;;;;;;8.35;5.05;;;;;;;;;;5115758;27;20047;-70
2024/01/13 12:13:33;;;;;;;7.03;4.55;;;;;;;;;;5134087;27;20039;-70
2024/01/13 12:16:07;;;;;;;11.32;7.43;;;;;;;;;;5134017;27;20050;-70
2024/01/13 12:18:35;;;;;;;10.38;6.40;;;;;;;;;;5134118;27;20043;-70
2024/01/13 12:21:03;;;;;;;11.30;7.43;;;;;;;;;;5133976;27;20048;-70
2024/01/13 12:23:31;;;;;;;7.68;4.93;;;;;;;;;;5133719;27;20047;-70
2024/01/13 12:25:58;;;;;;;5.90;3.83;;;;;;;;;;5133100;27;20091;-70
2024/01/13 12:28:37;;;;;;;5.88;4.10;;;;;;;;;;5133341;27;20046;-71
2024/01/13 12:31:05;;;;;;;6.20;3.78;;;;;;;;;;5133571;27;20408;-71
2024/01/13 12:33:33;;;;;;;5.85;4.07;;;;;;;;;;5133567;27;20047;-71
2024/01/13 12:36:08;;;;;;;7.50;4.75;;;;;;;;;;5133720;27;20054;-70
2024/01/13 12:38:36;;;;;;;6.55;4.78;;;;;;;;;;5133532;27;20047;-71
2024/01/13 12:41:07;;;;;;;7.43;4.88;;;;;;;;;;5133528;27;20047;-71
2024/01/13 12:43:38;;;;;;;7.32;5.03;;;;;;;;;;5133327;27;20043;-71
2024/01/13 12:46:08;;;;;;;7.00;4.78;;;;;;;;;;5132939;27;20043;-72
2024/01/13 12:48:35;;;;;;;5.72;4.30;;;;;;;;;;5133364;27;20050;-71
2024/01/13 12:51:18;;;;;;;7.35;4.68;;;;;;;;;;5132978;27;20507;-71
2024/01/13 12:53:46;;;;;;;6.95;5.05;;;;;;;;;;5132689;27;20043;-70
2024/01/13 12:56:14;;;;;;;7.75;5.30;;;;;;;;;;5132933;27;20663;-70
2024/01/13 12:58:41;;;;;;;7.68;5.40;;;;;;;;;;5133265;27;20043;-70
2024/01/13 13:01:08;;;;;;;8.35;5.97;;;;;;;;;;5133032;27;20043;-70
2024/01/13 13:03:35;;;;;;;6.93;5.20;;;;;;;;;;5132990;27;20112;-70
2024/01/13 13:06:02;;;;;;;7.53;5.43;;;;;;;;;;5132710;27;20039;-70
2024/01/13 13:08:29;;;;;;;8.20;5.93;;;;;;;;;;5132677;27;20043;-70
2024/01/13 13:10:55;;;;;;;5.88;4.22;;;;;;;;;;5132316;27;20684;-71
2024/01/13 13:13:22;;;;;;;7.43;5.20;;;;;;;;;;5132862;27;20059;-70
2024/01/13 13:15:49;;;;;;;5.97;4.28;;;;;;;;;;5132858;27;20043;-70
2024/01/13 13:18:16;;;;;;;8.50;5.70;;;;;;;;;;5132615;27;20066;-70
2024/01/13 13:20:43;;;;;;;5.78;4.38;;;;;;;;;;5132640;27;20103;-70
2024/01/13 13:23:10;;;;;;;6.90;5.10;;;;;;;;;;5132580;27;20100;-70
2024/01/13 13:25:36;;;;;;;7.10;5.18;;;;;;;;;;5132063;27;20050;-70
2024/01/13 13:28:08;;;;;;;7.15;5.10;;;;;;;;;;5132435;27;20794;-70
2024/01/13 13:30:34;;;;;;;7.10;5.10;;;;;;;;;;5132475;27;20055;-70
2024/01/13 13:33:02;;;;;;;6.05;4.63;;;;;;;;;;5132402;27;20047;-70
2024/01/13 13:35:29;;;;;;;5.65;3.83;;;;;;;;;;5132295;27;20542;-69
2024/01/13 13:37:56;;;;;;;5.93;4.05;;;;;;;;;;5132122;27;20126;-69
2024/01/13 13:40:23;;;;;;;8.50;5.47;;;;;;;;;;5131926;27;20047;-69
2024/01/13 13:42:51;;;;;;;6.43;4.70;;;;;;;;;;5132216;27;20419;-69
2024/01/13 13:45:18;;;;;;;6.82;4.80;;;;;;;;;;5132030;27;20050;-69
2024/01/13 13:47:45;;;;;;;6.72;5.13;;;;;;;;;;5132134;27;20107;-70
2024/01/13 13:50:12;;;;;;;6.55;4.88;;;;;;;;;;5132191;27;20047;-70
2024/01/13 13:52:43;;;;;;;5.47;4.13;;;;;;;;;;5132484;27;20047;-70
2024/01/13 13:55:09;;;;;;;6.13;4.38;;;;;;;;;;5131499;27;20046;-70
2024/01/13 13:57:38;;;;;;;5.82;4.20;;;;;;;;;;5132243;27;20047;-70
2024/01/13 14:00:07;;;;;;;6.03;3.95;;;;;;;;;;5131785;27;20499;-70
2024/01/13 14:02:35;;;;;;;4.27;2.80;;;;;;;;;;5131971;27;20062;-70
2024/01/13 14:05:05;;;;;;;4.40;3.60;;;;;;;;;;5131589;27;20288;-70
2024/01/13 14:07:44;;;;;;;4.57;3.53;;;;;;;;;;5132109;27;20054;-70
2024/01/13 14:10:11;;;;;;;4.25;3.00;;;;;;;;;;5131295;27;20057;-70
2024/01/13 14:12:39;;;;;;;5.13;3.65;;;;;;;;;;5131437;27;20400;-71
2024/01/13 14:15:09;;;;;;;;;;;;;;;;;;5131778;27;20047;-69
2024/01/13 14:17:42;;;;;;;4.90;3.53;;;;;;;;;;5131734;27;19923;-69
2024/01/13 14:20:13;;;;;;;4.80;3.55;;;;;;;;;;5131640;27;20051;-69
2024/01/13 14:22:47;;;;;;;4.82;3.38;;;;;;;;;;5131698;27;20777;-70
2024/01/13 14:25:14;;;;;;;4.70;3.20;;;;;;;;;;5130197;27;20083;-70
2024/01/13 14:27:43;;;;;;;4.35;2.97;;;;;;;;;;5131107;27;20487;-69
2024/01/13 14:30:11;;;;;;;3.58;2.83;;;;;;;;;;5131593;27;20086;-69
2024/01/13 14:32:39;;;;;;;4.30;3.10;;;;;;;;;;5131129;27;20047;-69
2024/01/13 14:35:06;;;;;;;3.60;2.40;;;;;;;;;;5131067;27;20047;-69
2024/01/13 14:37:45;;;;;;;4.15;2.80;;;;;;;;;;5130814;27;20494;-71
2024/01/13 14:40:13;;;;;;;4.60;3.22;;;;;;;;;;5130666;27;20065;-70
2024/01/13 14:42:40;;;;;;;5.50;3.70;;;;;;;;;;5131186;27;20039;-70